Time;durP1;ratioP1;P1;durP2;ratioP2;P2;SDS_P1;SDS_P2;PMS_P1;PMS_P2;Temp;Humidity;BMP_temperature;BMP_pressure;BME280_temperature;BME280_humidity;BME280_pressure;Samples;Min_cycle;Max_cycle;Signal;HPM_P1;HPM_P2
2022/06/26 00:01:34;;;;;;;23.08;12.30;;;16.60;99.90;;;;;;5115307;28;20122;-67
2022/06/26 00:04:06;;;;;;;20.95;13.00;;;16.60;99.90;;;;;;5095166;28;20432;-67
2022/06/26 00:06:32;;;;;;;16.15;9.93;;;16.60;99.90;;;;;;5096708;28;20126;-67
2022/06/26 00:08:57;;;;;;;18.58;10.65;;;16.60;99.90;;;;;;5097282;28;20039;-67
2022/06/26 00:11:24;;;;;;;20.23;10.27;;;16.60;99.90;;;;;;5097118;28;20514;-65
2022/06/26 00:13:50;;;;;;;15.95;10.25;;;16.60;99.90;;;;;;5096774;28;20035;-66
2022/06/26 00:16:16;;;;;;;18.60;10.82;;;16.60;99.90;;;;;;5097185;28;20096;-66
2022/06/26 00:18:43;;;;;;;17.30;11.48;;;16.60;99.90;;;;;;5096931;28;20545;-66
2022/06/26 00:21:08;;;;;;;26.25;13.85;;;16.60;99.90;;;;;;5097163;28;20048;-67
2022/06/26 00:23:35;;;;;;;25.33;16.17;;;16.60;99.90;;;;;;5096642;28;20048;-68
2022/06/26 00:26:02;;;;;;;25.13;17.40;;;16.70;99.90;;;;;;5096625;28;20114;-67
2022/06/26 00:28:28;;;;;;;28.85;16.48;;;16.70;99.90;;;;;;5114827;28;20123;-66
2022/06/26 00:30:54;;;;;;;26.42;15.57;;;16.80;99.90;;;;;;5096531;28;20123;-66
2022/06/26 00:33:20;;;;;;;27.45;17.38;;;16.90;99.90;;;;;;5094497;28;20039;-67
2022/06/26 00:35:46;;;;;;;26.05;17.25;;;16.90;99.90;;;;;;5114833;28;20556;-67
2022/06/26 00:38:11;;;;;;;31.77;17.33;;;17.00;99.90;;;;;;5079546;28;20059;-67
2022/06/26 00:40:38;;;;;;;34.25;18.45;;;17.00;99.90;;;;;;5096506;28;20035;-67
2022/06/26 00:43:05;;;;;;;27.50;15.43;;;17.00;99.90;;;;;;5114819;28;20050;-67
2022/06/26 00:45:31;;;;;;;30.85;17.52;;;17.10;99.90;;;;;;5096264;28;20126;-67
2022/06/26 00:47:57;;;;;;;31.30;17.77;;;17.10;99.90;;;;;;5092645;28;20134;-67
2022/06/26 00:50:23;;;;;;;34.90;17.70;;;17.10;99.90;;;;;;5093065;28;20105;-68
2022/06/26 00:52:50;;;;;;;25.13;17.00;;;17.10;99.90;;;;;;5094171;28;20032;-67
2022/06/26 00:55:17;;;;;;;25.08;14.90;;;17.10;99.90;;;;;;5092711;28;20048;-67
2022/06/26 00:57:42;;;;;;;33.42;18.08;;;17.10;99.90;;;;;;5075800;28;20040;-67
2022/06/26 01:00:10;;;;;;;24.75;14.95;;;17.10;99.90;;;;;;5075852;28;20040;-67
2022/06/26 01:02:37;;;;;;;37.42;19.15;;;17.10;99.90;;;;;;5091803;28;20140;-67
2022/06/26 01:05:04;;;;;;;23.40;15.55;;;17.10;99.90;;;;;;5091516;28;20515;-67
2022/06/26 01:07:31;;;;;;;27.02;16.65;;;17.10;99.90;;;;;;5093619;28;20469;-67
2022/06/26 01:09:57;;;;;;;23.60;14.88;;;17.20;99.90;;;;;;5093750;28;20047;-67
2022/06/26 01:12:23;;;;;;;31.17;17.23;;;17.20;99.90;;;;;;5093851;28;20123;-67
2022/06/26 01:14:51;;;;;;;34.00;19.77;;;17.10;99.90;;;;;;5092488;28;20473;-67
2022/06/26 01:17:17;;;;;;;41.65;20.48;;;17.10;99.90;;;;;;5093647;28;20036;-67
2022/06/26 01:19:44;;;;;;;30.65;19.52;;;17.10;99.90;;;;;;5093688;28;20464;-66
2022/06/26 01:22:10;;;;;;;26.30;16.95;;;17.10;99.90;;;;;;5092335;28;20071;-67
2022/06/26 01:24:36;;;;;;;33.33;18.75;;;17.10;99.90;;;;;;5091224;28;20079;-67
2022/06/26 01:27:02;;;;;;;38.95;20.63;;;17.10;99.90;;;;;;5092409;28;20469;-67
2022/06/26 01:29:28;;;;;;;26.35;17.73;;;17.00;99.90;;;;;;5074278;28;20036;-66
2022/06/26 01:31:54;;;;;;;37.53;21.70;;;17.10;99.90;;;;;;5072516;28;20123;-67
2022/06/26 01:34:20;;;;;;;32.20;20.00;;;17.00;99.90;;;;;;5092081;28;20042;-67
2022/06/26 01:36:46;;;;;;;43.72;21.80;;;17.00;99.90;;;;;;5092361;28;20048;-67
2022/06/26 01:39:12;;;;;;;38.20;23.50;;;17.00;99.90;;;;;;5090868;28;20040;-67
2022/06/26 01:41:37;;;;;;;46.47;22.35;;;17.00;99.90;;;;;;5092534;28;20074;-67
2022/06/26 01:44:07;;;;;;;35.60;19.02;;;17.00;99.90;;;;;;5092328;28;20036;-67
2022/06/26 01:46:34;;;;;;;25.63;15.77;;;17.00;99.90;;;;;;5090910;28;20055;-67
2022/06/26 01:49:00;;;;;;;28.58;17.80;;;17.00;99.90;;;;;;5094147;28;20040;-67
2022/06/26 01:51:25;;;;;;;31.95;18.42;;;17.00;99.90;;;;;;5094490;28;20395;-68
2022/06/26 01:53:51;;;;;;;32.53;18.90;;;17.00;99.90;;;;;;5094033;28;20505;-68
2022/06/26 01:56:18;;;;;;;22.95;15.77;;;17.00;99.90;;;;;;5112391;28;20266;-68
2022/06/26 01:58:43;;;;;;;16.60;12.70;;;17.00;99.90;;;;;;5112481;28;20079;-67
2022/06/26 02:01:09;;;;;;;18.13;12.30;;;17.00;99.90;;;;;;5094172;28;20136;-67
2022/06/26 02:03:35;;;;;;;17.73;11.60;;;17.00;99.90;;;;;;5109823;28;20047;-67
2022/06/26 02:06:01;;;;;;;19.20;11.77;;;17.00;99.90;;;;;;5092727;28;20051;-67
2022/06/26 02:08:27;;;;;;;20.67;12.00;;;17.00;99.90;;;;;;5056908;28;20035;-68
2022/06/26 02:13:49;;;;;;;13.57;10.15;;;17.00;99.90;;;;;;5036630;28;20045;-67
2022/06/26 02:16:21;;;;;;;10.32;6.90;;;17.00;99.90;;;;;;5075742;28;20081;-67
2022/06/26 02:18:55;;;;;;;16.58;8.30;;;17.00;99.90;;;;;;5095790;28;20035;-68
2022/06/26 02:21:23;;;;;;;9.80;4.88;;;17.00;99.90;;;;;;5077796;28;20057;-68
2022/06/26 02:23:50;;;;;;;7.93;4.90;;;17.00;99.90;;;;;;5077734;28;20040;-68
2022/06/26 02:26:18;;;;;;;8.93;4.63;;;17.00;99.90;;;;;;5077790;28;20041;-68
2022/06/26 02:28:45;;;;;;;8.07;5.10;;;17.00;99.90;;;;;;5077607;28;20118;-68
2022/06/26 02:31:11;;;;;;;7.32;4.95;;;17.00;99.90;;;;;;5077598;28;20281;-69
2022/06/26 02:33:38;;;;;;;9.10;4.70;;;17.00;99.90;;;;;;5075433;28;20047;-68
2022/06/26 02:36:06;;;;;;;6.63;4.32;;;17.00;99.90;;;;;;5095897;28;20044;-78
2022/06/26 02:38:33;;;;;;;6.63;3.95;;;17.00;99.90;;;;;;5077468;28;20047;-68
2022/06/26 02:41:02;;;;;;;7.35;3.80;;;17.00;99.90;;;;;;5077718;28;20040;-68
2022/06/26 02:43:28;;;;;;;6.40;4.05;;;17.00;99.90;;;;;;5077615;28;20040;-69
2022/06/26 02:45:55;;;;;;;4.82;4.00;;;17.00;99.90;;;;;;5095350;28;20528;-68
2022/06/26 02:48:21;;;;;;;7.30;4.22;;;17.00;99.90;;;;;;5090383;28;20058;-70
2022/06/26 02:50:48;;;;;;;4.70;3.90;;;17.00;99.90;;;;;;5080935;28;20130;-68
2022/06/26 02:53:15;;;;;;;4.55;3.75;;;16.90;99.90;;;;;;5097465;28;20767;-69
2022/06/26 02:55:41;;;;;;;5.15;3.53;;;16.90;99.90;;;;;;5097525;28;20441;-69
2022/06/26 02:58:06;;;;;;;5.55;4.05;;;16.90;99.90;;;;;;5097719;28;20082;-71
2022/06/26 03:00:33;;;;;;;4.57;4.10;;;16.90;99.90;;;;;;5115463;28;20507;-68
2022/06/26 03:03:02;;;;;;;7.22;4.32;;;16.90;99.90;;;;;;5113178;28;20488;-68
2022/06/26 03:05:32;;;;;;;6.30;4.50;;;16.80;99.90;;;;;;5097189;28;20123;-68
2022/06/26 03:07:59;;;;;;;5.32;3.88;;;16.90;99.90;;;;;;5097387;28;20035;-70
2022/06/26 03:10:24;;;;;;;5.25;4.63;;;16.80;99.90;;;;;;5097422;28;20083;-68
2022/06/26 03:12:51;;;;;;;5.38;4.40;;;16.80;99.90;;;;;;5097224;28;20491;-68
2022/06/26 03:15:17;;;;;;;6.35;4.05;;;16.80;99.90;;;;;;5080006;28;20079;-68
2022/06/26 03:17:44;;;;;;;6.38;5.03;;;16.80;99.90;;;;;;5097253;28;20048;-68
2022/06/26 03:20:13;;;;;;;7.65;5.53;;;16.80;99.90;;;;;;5096887;28;20048;-68
2022/06/26 03:22:39;;;;;;;8.07;5.60;;;16.80;99.90;;;;;;5096939;28;20518;-68
2022/06/26 03:25:06;;;;;;;6.15;4.97;;;16.80;99.90;;;;;;5097196;28;20062;-68
2022/06/26 03:27:33;;;;;;;6.10;5.40;;;16.80;99.90;;;;;;5113862;28;20177;-68
2022/06/26 03:29:58;;;;;;;9.45;5.88;;;16.80;99.90;;;;;;5079993;28;20043;-68
2022/06/26 03:32:25;;;;;;;7.75;5.47;;;16.80;99.90;;;;;;5077354;28;20407;-68
2022/06/26 03:34:51;;;;;;;13.38;7.10;;;16.80;99.90;;;;;;5096583;28;20040;-68
2022/06/26 03:37:17;;;;;;;9.52;7.47;;;16.80;99.90;;;;;;5096664;28;20043;-68
2022/06/26 03:39:43;;;;;;;9.50;7.38;;;16.90;99.90;;;;;;5096771;28;20040;-68
2022/06/26 03:42:09;;;;;;;8.35;7.05;;;16.90;99.90;;;;;;5096551;28;20047;-68
2022/06/26 03:44:34;;;;;;;9.68;7.07;;;16.80;99.90;;;;;;5096739;28;20078;-68
2022/06/26 03:47:00;;;;;;;12.05;9.18;;;16.80;99.90;;;;;;5114969;28;20399;-68
2022/06/26 03:49:26;;;;;;;9.90;7.43;;;16.80;99.90;;;;;;5096634;28;20085;-68
2022/06/26 03:51:52;;;;;;;14.15;9.60;;;16.80;99.90;;;;;;5114651;28;20476;-68
2022/06/26 03:54:19;;;;;;;11.85;9.70;;;16.90;99.90;;;;;;5096378;28;20046;-68
2022/06/26 03:56:46;;;;;;;11.10;9.70;;;16.80;99.90;;;;;;5096390;28;20039;-68
2022/06/26 03:59:11;;;;;;;12.25;10.10;;;16.80;99.90;;;;;;5114426;28;20035;-68
2022/06/26 04:01:37;;;;;;;12.25;9.93;;;16.80;99.90;;;;;;5096379;28;20043;-69
2022/06/26 04:04:03;;;;;;;12.85;10.77;;;16.80;99.90;;;;;;5093676;28;20035;-68
2022/06/26 04:06:29;;;;;;;12.18;9.73;;;16.80;99.90;;;;;;5079185;28;20035;-68
2022/06/26 04:08:55;;;;;;;14.48;10.18;;;16.80;99.90;;;;;;5114402;28;20055;-69
2022/06/26 04:11:21;;;;;;;11.88;9.73;;;16.80;99.90;;;;;;5114105;28;20035;-68
2022/06/26 04:13:49;;;;;;;13.15;10.23;;;16.90;99.90;;;;;;5096029;28;20040;-68
2022/06/26 04:16:16;;;;;;;11.10;9.77;;;16.90;99.90;;;;;;5096120;28;20080;-68
2022/06/26 04:18:42;;;;;;;11.70;10.48;;;17.00;99.90;;;;;;5114090;28;20036;-68
2022/06/26 04:21:08;;;;;;;10.63;9.45;;;17.00;99.90;;;;;;5114106;28;20122;-67
2022/06/26 04:23:34;;;;;;;11.48;9.93;;;17.00;99.90;;;;;;5114160;28;20119;-69
2022/06/26 04:26:00;;;;;;;17.20;10.70;;;17.00;99.90;;;;;;5095616;28;20556;-68
2022/06/26 04:28:26;;;;;;;14.50;9.35;;;17.00;99.90;;;;;;5114237;28;20078;-68
2022/06/26 04:30:52;;;;;;;12.93;10.63;;;17.00;99.90;;;;;;5095638;28;20407;-69
2022/06/26 04:33:17;;;;;;;12.90;10.23;;;17.10;99.90;;;;;;5111649;28;20044;-69
2022/06/26 04:35:43;;;;;;;14.07;10.25;;;17.10;99.90;;;;;;5113672;28;20492;-69
2022/06/26 04:38:09;;;;;;;12.90;10.27;;;17.10;99.90;;;;;;5095240;28;20058;-68
2022/06/26 04:40:35;;;;;;;15.50;11.13;;;17.10;99.90;;;;;;5095999;28;20079;-69
2022/06/26 04:43:01;;;;;;;14.88;10.80;;;17.10;99.90;;;;;;5096677;28;20043;-70
2022/06/26 04:45:26;;;;;;;14.35;11.43;;;17.10;99.90;;;;;;5114635;28;20375;-68
2022/06/26 04:47:52;;;;;;;13.15;11.05;;;17.20;99.90;;;;;;5114592;28;20047;-67
2022/06/26 04:50:18;;;;;;;17.35;13.43;;;17.20;99.90;;;;;;5096324;28;20503;-68
2022/06/26 04:52:48;;;;;;;17.25;13.40;;;17.30;99.90;;;;;;5096455;28;20050;-68
2022/06/26 04:55:14;;;;;;;14.48;12.30;;;17.30;99.90;;;;;;5096043;28;20044;-69
2022/06/26 04:57:40;;;;;;;15.57;12.55;;;17.40;99.90;;;;;;5114416;28;20095;-69
2022/06/26 05:00:08;;;;;;;14.75;12.93;;;17.40;99.90;;;;;;5095979;28;20118;-69
2022/06/26 05:02:38;;;;;;;15.07;13.27;;;17.40;99.90;;;;;;5077195;28;20035;-68
2022/06/26 05:05:05;;;;;;;15.88;14.18;;;17.40;99.90;;;;;;5095924;28;20035;-70
2022/06/26 05:07:32;;;;;;;20.10;16.10;;;17.40;99.90;;;;;;5095914;28;20518;-70
2022/06/26 05:09:58;;;;;;;20.00;17.20;;;17.40;99.90;;;;;;5078906;28;20092;-73
2022/06/26 05:12:25;;;;;;;23.45;18.05;;;17.40;99.90;;;;;;5096094;28;20028;-74
2022/06/26 05:14:50;;;;;;;23.42;18.55;;;17.30;99.90;;;;;;5078905;28;20491;-68
2022/06/26 05:17:16;;;;;;;23.60;18.75;;;17.30;99.90;;;;;;5114047;28;20113;-68
2022/06/26 05:19:42;;;;;;;27.95;21.63;;;17.30;99.90;;;;;;5095561;28;20089;-68
2022/06/26 05:22:08;;;;;;;30.35;23.45;;;17.30;99.90;;;;;;5113950;28;20039;-69
2022/06/26 05:24:35;;;;;;;27.50;21.02;;;17.30;99.90;;;;;;5095970;28;20516;-70
2022/06/26 05:27:00;;;;;;;31.52;23.23;;;17.40;99.90;;;;;;5095647;28;20047;-70
2022/06/26 05:29:27;;;;;;;27.13;22.65;;;17.40;99.90;;;;;;5095579;28;20075;-69
2022/06/26 05:31:53;;;;;;;27.80;23.33;;;17.40;99.90;;;;;;5113140;28;20043;-69
2022/06/26 05:34:19;;;;;;;34.28;25.70;;;17.40;99.90;;;;;;5094374;28;20051;-70
2022/06/26 05:36:46;;;;;;;30.45;24.10;;;17.40;99.90;;;;;;5113633;28;20034;-68
2022/06/26 05:39:12;;;;;;;30.88;24.42;;;17.40;99.90;;;;;;5113621;28;20039;-69
2022/06/26 05:41:37;;;;;;;29.63;23.83;;;17.40;99.90;;;;;;5113556;28;20043;-72
2022/06/26 05:44:03;;;;;;;33.03;25.55;;;17.50;99.90;;;;;;5095351;28;20054;-68
2022/06/26 05:46:29;;;;;;;35.65;26.27;;;17.50;99.90;;;;;;5113539;28;20070;-70
2022/06/26 05:48:55;;;;;;;32.35;26.38;;;17.60;99.90;;;;;;5095149;28;20557;-68
2022/06/26 05:51:21;;;;;;;34.47;26.13;;;17.60;99.90;;;;;;5112771;28;20053;-69
2022/06/26 05:53:47;;;;;;;31.67;24.58;;;17.60;99.90;;;;;;5095451;28;20138;-68
2022/06/26 05:56:13;;;;;;;29.90;24.00;;;17.70;99.90;;;;;;5095365;28;20060;-72
2022/06/26 05:58:39;;;;;;;33.50;25.48;;;17.70;99.90;;;;;;5113660;28;20387;-68
2022/06/26 06:01:05;;;;;;;30.83;24.88;;;17.70;99.90;;;;;;5078261;28;20510;-68
2022/06/26 06:03:31;;;;;;;31.80;25.88;;;17.80;99.90;;;;;;5076172;28;20127;-68
2022/06/26 06:05:57;;;;;;;34.35;25.83;;;17.80;99.90;;;;;;5094924;28;20047;-69
2022/06/26 06:08:23;;;;;;;33.65;26.42;;;17.90;99.90;;;;;;5094976;28;20177;-68
2022/06/26 06:10:49;;;;;;;26.85;22.40;;;17.90;99.90;;;;;;5094981;28;20126;-68
2022/06/26 06:13:15;;;;;;;33.75;24.40;;;18.00;99.90;;;;;;5095308;28;20032;-71
2022/06/26 06:15:40;;;;;;;29.70;24.10;;;18.10;99.90;;;;;;5095191;28;20075;-69
2022/06/26 06:18:06;;;;;;;29.40;22.33;;;18.20;99.90;;;;;;5113340;28;20487;-71
2022/06/26 06:20:32;;;;;;;27.80;23.15;;;18.50;99.90;;;;;;5095119;28;20503;-68
2022/06/26 06:23:04;;;;;;;26.75;22.98;;;18.60;99.90;;;;;;5092399;28;20055;-68
2022/06/26 06:25:30;;;;;;;29.75;24.52;;;18.70;99.90;;;;;;5113363;28;20058;-70
2022/06/26 06:27:56;;;;;;;26.98;23.23;;;18.70;99.90;;;;;;5094826;28;20047;-68
2022/06/26 06:30:22;;;;;;;31.48;23.73;;;18.60;99.90;;;;;;5113219;28;20039;-68
2022/06/26 06:32:48;;;;;;;28.02;23.80;;;18.60;99.90;;;;;;5075705;28;20044;-72
2022/06/26 06:35:14;;;;;;;31.65;24.67;;;18.60;99.90;;;;;;5113073;28;20035;-70
2022/06/26 06:37:41;;;;;;;26.00;23.00;;;18.60;99.90;;;;;;5094704;28;20050;-68
2022/06/26 06:40:08;;;;;;;27.80;23.77;;;18.70;99.90;;;;;;5113250;28;20031;-69
2022/06/26 06:42:34;;;;;;;27.77;23.05;;;18.70;99.90;;;;;;5094600;28;20047;-70
2022/06/26 06:45:01;;;;;;;26.15;22.52;;;18.70;99.90;;;;;;5113158;28;20036;-70
2022/06/26 06:47:26;;;;;;;26.55;22.83;;;18.60;99.90;;;;;;5094696;28;20044;-69
2022/06/26 06:49:52;;;;;;;25.35;22.15;;;18.50;99.90;;;;;;5112936;28;20507;-70
2022/06/26 06:52:18;;;;;;;22.75;19.83;;;18.60;99.90;;;;;;5094370;28;20047;-73
2022/06/26 06:54:44;;;;;;;24.10;20.30;;;19.00;99.90;;;;;;5094909;28;20035;-72
2022/06/26 06:57:10;;;;;;;24.02;19.77;;;19.50;99.90;;;;;;5112996;28;20469;-71
2022/06/26 06:59:36;;;;;;;21.63;19.20;;;19.80;99.90;;;;;;5112986;28;20071;-69
2022/06/26 07:02:02;;;;;;;20.33;17.40;;;20.00;99.90;;;;;;5094091;28;20044;-74
2022/06/26 07:04:28;;;;;;;19.75;17.58;;;20.10;99.90;;;;;;5116683;28;20036;-74
2022/06/26 07:06:54;;;;;;;19.88;15.98;;;20.30;99.90;;;;;;5098138;28;20039;-70
2022/06/26 07:09:20;;;;;;;17.60;15.70;;;20.60;99.90;;;;;;5116759;28;20425;-71
2022/06/26 07:11:47;;;;;;;14.35;12.93;;;20.90;99.90;;;;;;5113861;28;20136;-73
2022/06/26 07:14:12;;;;;;;15.82;14.10;;;21.30;99.90;;;;;;5116464;28;20127;-71
2022/06/26 07:16:38;;;;;;;19.00;14.95;;;21.50;99.90;;;;;;5097822;28;20119;-69
2022/06/26 07:19:05;;;;;;;17.00;14.35;;;21.40;99.90;;;;;;5098141;28;20052;-70
2022/06/26 07:21:31;;;;;;;17.73;14.98;;;21.20;99.90;;;;;;5097996;28;20153;-68
2022/06/26 07:23:56;;;;;;;17.05;13.50;;;20.90;99.90;;;;;;5098245;28;20120;-70
2022/06/26 07:26:23;;;;;;;17.45;14.35;;;20.70;99.90;;;;;;5116311;28;20039;-70
2022/06/26 07:28:49;;;;;;;14.20;12.00;;;20.50;99.90;;;;;;5116253;28;20039;-70
2022/06/26 07:31:15;;;;;;;13.27;11.90;;;20.30;99.90;;;;;;5116072;28;20136;-70
2022/06/26 07:36:25;;;;;;;17.13;13.48;;;19.80;99.90;;;;;;5098018;28;20101;-70
2022/06/26 07:38:50;;;;;;;12.95;11.65;;;19.70;99.90;;;;;;5115914;28;20447;-71
2022/06/26 07:41:16;;;;;;;10.82;8.57;;;20.10;99.90;;;;;;5096677;28;20394;-70
2022/06/26 07:43:42;;;;;;;11.10;9.02;;;20.60;99.90;;;;;;5096550;28;20092;-69
2022/06/26 07:46:08;;;;;;;10.07;8.73;;;21.00;99.90;;;;;;5096931;28;20180;-72
2022/06/26 07:48:34;;;;;;;9.45;8.30;;;21.40;99.90;;;;;;5082281;28;20116;-70
2022/06/26 07:51:01;;;;;;;11.30;9.52;;;21.70;99.90;;;;;;5076745;28;20042;-70
2022/06/26 07:53:27;;;;;;;11.60;8.65;;;22.00;99.90;;;;;;5076418;28;20040;-71
2022/06/26 07:55:54;;;;;;;8.63;7.30;;;22.10;99.90;;;;;;5076472;28;20044;-75
2022/06/26 07:58:20;;;;;;;7.90;7.10;;;22.30;99.90;;;;;;5073347;28;20044;-69
2022/06/26 08:00:46;;;;;;;13.88;7.00;;;22.40;99.90;;;;;;5058974;28;20032;-76
2022/06/26 08:03:15;;;;;;;8.15;7.03;;;22.20;99.90;;;;;;5091322;28;20040;-77
2022/06/26 08:05:42;;;;;;;7.25;4.80;;;22.10;99.90;;;;;;5059445;28;20079;-72
2022/06/26 08:08:09;;;;;;;4.43;3.35;;;21.90;99.90;;;;;;5075993;28;20400;-76
2022/06/26 08:10:36;;;;;;;5.63;2.83;;;21.80;99.90;;;;;;5076035;28;20047;-73
2022/06/26 08:13:03;;;;;;;3.53;2.47;;;21.70;99.90;;;;;;5058678;28;20044;-76
2022/06/26 08:15:29;;;;;;;4.35;3.05;;;21.40;99.90;;;;;;5094835;28;20472;-74
2022/06/26 08:17:55;;;;;;;5.05;3.30;;;21.10;99.90;;;;;;5094495;28;20526;-77
2022/06/26 08:20:21;;;;;;;6.03;3.25;;;21.30;99.90;;;;;;5076658;28;20075;-75
2022/06/26 08:22:47;;;;;;;4.82;2.95;;;21.70;99.90;;;;;;5076017;28;20093;-77
2022/06/26 08:25:13;;;;;;;4.18;3.13;;;22.10;99.90;;;;;;5094757;28;20039;-74
2022/06/26 08:27:38;;;;;;;5.18;3.15;;;22.50;99.90;;;;;;5076952;28;20046;-72
2022/06/26 08:30:06;;;;;;;4.53;2.80;;;23.00;99.90;;;;;;5094660;28;20036;-73
2022/06/26 08:32:32;;;;;;;7.15;3.60;;;23.30;99.90;;;;;;5092337;28;20043;-71
2022/06/26 08:34:58;;;;;;;5.70;2.88;;;23.20;99.90;;;;;;5094542;28;20036;-71
2022/06/26 08:37:23;;;;;;;6.57;3.72;;;22.80;99.90;;;;;;5059413;28;20492;-66
2022/06/26 08:39:49;;;;;;;5.07;3.20;;;22.60;99.90;;;;;;5094644;28;20047;-70
2022/06/26 08:42:15;;;;;;;6.15;3.03;;;22.60;99.90;;;;;;5076547;28;20126;-72
2022/06/26 08:44:44;;;;;;;5.78;3.17;;;22.50;99.90;;;;;;5076136;28;20052;-71
2022/06/26 08:47:11;;;;;;;3.55;2.78;;;22.60;99.90;;;;;;5097213;28;20051;-73
2022/06/26 08:49:37;;;;;;;5.03;3.78;;;23.00;99.90;;;;;;5096245;28;20055;-75
2022/06/26 08:52:03;;;;;;;4.97;3.97;;;23.10;99.90;;;;;;5114859;28;20035;-73
2022/06/26 08:54:31;;;;;;;5.40;4.38;;;23.10;99.90;;;;;;5080009;28;20114;-72
2022/06/26 08:56:58;;;;;;;5.75;4.50;;;22.90;99.90;;;;;;5096383;28;20514;-75
2022/06/26 08:59:25;;;;;;;5.00;3.95;;;22.80;99.90;;;;;;5097489;28;20035;-76
2022/06/26 09:01:51;;;;;;;5.28;3.97;;;22.60;99.90;;;;;;5097580;28;20031;-72
2022/06/26 09:04:17;;;;;;;7.32;3.72;;;22.50;99.90;;;;;;5112480;28;20637;-70
2022/06/26 09:06:44;;;;;;;5.10;2.40;;;22.60;99.90;;;;;;5096386;28;20040;-69
2022/06/26 09:09:15;;;;;;;4.97;3.00;;;23.00;99.90;;;;;;5080342;28;20104;-72
2022/06/26 09:11:41;;;;;;;6.95;3.10;;;23.20;99.90;;;;;;5096401;28;20551;-72
2022/06/26 09:14:07;;;;;;;6.93;3.72;;;23.00;99.90;;;;;;5095901;28;20047;-73
2022/06/26 09:16:35;;;;;;;5.40;3.30;;;22.60;99.90;;;;;;5095791;28;20103;-73
2022/06/26 09:19:18;;;;;;;5.87;3.90;;;22.70;99.90;;;;;;5114030;28;20072;-71
2022/06/26 09:21:46;;;;;;;4.25;3.20;;;23.00;99.90;;;;;;5095939;28;20503;-71
2022/06/26 09:24:14;;;;;;;8.23;3.67;;;23.40;99.90;;;;;;5113714;28;20487;-69
2022/06/26 09:26:43;;;;;;;6.28;3.60;;;23.60;99.90;;;;;;5112902;28;20388;-70
2022/06/26 09:29:13;;;;;;;4.72;2.95;;;23.80;99.90;;;;;;5095876;28;20046;-69
2022/06/26 09:31:40;;;;;;;4.85;2.67;;;23.90;99.90;;;;;;5096476;28;20475;-68
2022/06/26 09:34:07;;;;;;;5.75;2.58;;;24.00;99.90;;;;;;5112627;28;20031;-67
2022/06/26 09:36:34;;;;;;;5.30;2.50;;;24.10;99.90;;;;;;5096575;28;20448;-68
2022/06/26 09:39:00;;;;;;;4.20;2.55;;;24.30;99.90;;;;;;5078711;28;20051;-72
2022/06/26 09:41:34;;;;;;;6.22;2.40;;;24.20;99.90;;;;;;5096076;28;20047;-68
2022/06/26 09:44:00;;;;;;;5.10;2.42;;;24.30;99.90;;;;;;5113583;28;20539;-69
2022/06/26 09:46:33;;;;;;;3.15;2.03;;;24.20;99.90;;;;;;5113825;28;20043;-68
2022/06/26 09:49:01;;;;;;;4.03;2.30;;;24.10;99.90;;;;;;5091820;28;20059;-65
2022/06/26 09:51:27;;;;;;;5.32;3.00;;;24.10;99.90;;;;;;5091840;28;20055;-71
2022/06/26 09:53:53;;;;;;;6.50;2.58;;;24.20;99.90;;;;;;5091696;28;20039;-67
2022/06/26 09:56:20;;;;;;;3.38;2.60;;;24.40;99.90;;;;;;5092383;28;20046;-70
2022/06/26 09:58:46;;;;;;;4.18;3.33;;;24.50;99.90;;;;;;5091006;28;20039;-70
2022/06/26 10:06:46;;;;;;;5.53;3.20;;;24.70;99.90;;;;;;5091903;28;20047;-72
2022/06/26 10:09:13;;;;;;;6.43;3.00;;;24.60;99.90;;;;;;5092106;28;20101;-70
2022/06/26 10:11:42;;;;;;;7.97;3.55;;;24.40;99.90;;;;;;5075130;28;20051;-70
2022/06/26 10:14:23;;;;;;;5.65;3.58;;;24.20;99.90;;;;;;5091570;28;20043;-70
2022/06/26 10:17:27;;;;;;;5.30;2.90;;;23.90;99.90;;;;;;5093337;28;20119;-70
2022/06/26 10:19:56;;;;;;;5.13;2.50;;;23.70;99.90;;;;;;4994384;28;20133;-70
2022/06/26 10:22:22;;;;;;;4.20;3.05;;;23.30;99.90;;;;;;5056238;28;20044;-69
2022/06/26 10:25:00;;;;;;;6.43;3.15;;;23.20;99.90;;;;;;5093198;28;20115;-71
2022/06/26 10:27:33;;;;;;;6.18;3.10;;;23.20;99.90;;;;;;5074887;28;20044;-70
2022/06/26 10:30:18;;;;;;;4.97;3.78;;;23.10;99.90;;;;;;5092769;28;20072;-69
2022/06/26 10:32:46;;;;;;;5.47;3.83;;;23.20;99.90;;;;;;5072576;28;20587;-69
2022/06/26 10:35:14;;;;;;;5.45;3.35;;;23.20;99.90;;;;;;5091658;28;20047;-76
2022/06/26 10:37:42;;;;;;;6.20;4.00;;;23.20;99.90;;;;;;5078279;28;20048;-74
2022/06/26 10:40:12;;;;;;;7.40;5.10;;;23.20;99.90;;;;;;5096055;28;20411;-73
2022/06/26 10:42:53;;;;;;;6.32;4.55;;;23.20;99.90;;;;;;5097117;28;20036;-69
2022/06/26 10:45:36;;;;;;;6.05;3.92;;;23.40;99.90;;;;;;5096554;28;20032;-70
2022/06/26 10:48:06;;;;;;;6.70;4.05;;;23.40;99.90;;;;;;5098423;28;20150;-72
2022/06/26 10:50:32;;;;;;;6.15;3.80;;;23.60;99.90;;;;;;5098640;28;20044;-70
2022/06/26 10:53:19;;;;;;;8.63;3.72;;;23.80;99.90;;;;;;5098871;28;20065;-66
2022/06/26 10:56:01;;;;;;;7.40;3.17;;;24.10;99.90;;;;;;5098320;28;20048;-71
2022/06/26 10:58:35;;;;;;;5.38;3.50;;;24.00;99.90;;;;;;5116607;28;20403;-67
2022/06/26 11:01:07;;;;;;;3.45;2.85;;;23.90;99.90;;;;;;5098387;28;20047;-69
2022/06/26 11:03:34;;;;;;;4.88;3.25;;;23.70;99.90;;;;;;5079172;28;20122;-68
2022/06/26 11:06:14;;;;;;;6.93;3.25;;;23.70;99.90;;;;;;5098347;28;20181;-70
2022/06/26 11:08:46;;;;;;;6.25;3.83;;;23.60;99.90;;;;;;5098239;28;20079;-73
2022/06/26 11:11:20;;;;;;;5.82;3.63;;;23.60;99.90;;;;;;5116865;28;20426;-70
2022/06/26 11:14:12;;;;;;;5.85;3.60;;;23.60;99.90;;;;;;5117039;28;20465;-74
2022/06/26 11:16:43;;;;;;;5.15;3.63;;;23.60;99.90;;;;;;5111104;28;20044;-66
2022/06/26 11:19:28;;;;;;;7.45;4.15;;;23.50;99.90;;;;;;5097942;28;20046;-71
2022/06/26 11:22:09;;;;;;;5.00;3.97;;;23.40;99.90;;;;;;5098378;28;20043;-70
2022/06/26 11:24:54;;;;;;;5.28;3.60;;;23.30;99.90;;;;;;5097919;28;20104;-73
2022/06/26 11:27:26;;;;;;;7.63;4.00;;;23.10;99.90;;;;;;5117018;28;20503;-72
2022/06/26 11:29:53;;;;;;;6.85;4.70;;;23.00;99.90;;;;;;5116925;28;20031;-74
2022/06/26 11:32:23;;;;;;;5.70;4.70;;;23.00;99.90;;;;;;5114283;28;20824;-72
2022/06/26 11:34:50;;;;;;;5.70;3.95;;;23.10;99.90;;;;;;5099226;28;20067;-73
2022/06/26 11:37:16;;;;;;;6.55;4.38;;;23.10;99.90;;;;;;5118108;28;20038;-74
2022/06/26 11:39:44;;;;;;;6.18;5.20;;;23.20;99.90;;;;;;5099375;28;20130;-70
2022/06/26 11:42:28;;;;;;;8.57;5.75;;;23.20;99.90;;;;;;5082479;28;20077;-74
2022/06/26 11:44:55;;;;;;;9.35;5.97;;;23.10;99.90;;;;;;5116095;28;20042;-72
2022/06/26 11:47:22;;;;;;;7.43;5.53;;;23.10;99.90;;;;;;5094602;28;20054;-73
2022/06/26 11:49:49;;;;;;;7.38;6.13;;;23.10;99.90;;;;;;5094864;28;20052;-74
2022/06/26 11:52:17;;;;;;;235.65;77.90;;;23.10;99.90;;;;;;5094273;28;20484;-69
2022/06/26 11:54:43;;;;;;;7.38;5.50;;;23.10;99.90;;;;;;5095126;28;20044;-70
2022/06/26 11:57:11;;;;;;;6.28;5.43;;;23.00;99.90;;;;;;5095003;28;20070;-72
2022/06/26 11:59:43;;;;;;;8.32;5.72;;;22.80;99.90;;;;;;5094148;28;20040;-74
2022/06/26 12:02:24;;;;;;;7.50;5.30;;;22.70;99.90;;;;;;5093144;28;20472;-72
2022/06/26 12:05:08;;;;;;;7.20;5.82;;;22.50;99.90;;;;;;5076912;28;20079;-73
2022/06/26 12:07:46;;;;;;;7.05;5.22;;;22.40;99.90;;;;;;5095235;28;20093;-74
2022/06/26 12:10:24;;;;;;;11.82;7.25;;;22.30;99.90;;;;;;5093943;28;20052;-75
2022/06/26 12:12:50;;;;;;;10.52;5.55;;;22.30;99.90;;;;;;5096561;28;20491;-76
2022/06/26 12:15:16;;;;;;;9.95;6.15;;;22.30;99.90;;;;;;5097216;28;20123;-76
2022/06/26 12:17:50;;;;;;;9.73;7.00;;;22.30;99.90;;;;;;5078090;28;20384;-76
2022/06/26 12:20:16;;;;;;;8.70;5.80;;;22.30;99.90;;;;;;5093820;28;20126;-75
2022/06/26 12:22:51;;;;;;;5.90;4.53;;;22.30;99.90;;;;;;5094930;28;20361;-73
2022/06/26 12:25:31;;;;;;;7.97;4.50;;;22.20;99.90;;;;;;5094596;28;20561;-75
2022/06/26 12:27:58;;;;;;;8.32;4.63;;;22.20;99.90;;;;;;5094641;28;20064;-76
2022/06/26 12:30:44;;;;;;;7.13;3.78;;;22.20;99.90;;;;;;5076701;28;20036;-74
2022/06/26 12:33:11;;;;;;;11.80;4.97;;;22.20;99.90;;;;;;5091281;28;20032;-76
2022/06/26 12:35:37;;;;;;;11.20;6.38;;;22.10;99.90;;;;;;5094486;28;20052;-70
2022/06/26 12:38:03;;;;;;;6.75;4.35;;;22.20;99.90;;;;;;5094411;28;20093;-71
2022/06/26 12:40:32;;;;;;;8.93;4.88;;;22.30;99.90;;;;;;5093377;28;20036;-71
2022/06/26 12:42:58;;;;;;;6.03;3.75;;;22.40;99.90;;;;;;5094620;28;20044;-71
2022/06/26 12:45:24;;;;;;;5.85;4.25;;;22.40;99.90;;;;;;5092836;28;20369;-75
2022/06/26 12:47:50;;;;;;;8.35;3.13;;;22.30;99.90;;;;;;5096367;28;20055;-73
2022/06/26 12:50:16;;;;;;;7.05;3.55;;;22.30;99.90;;;;;;5096538;28;20058;-67
2022/06/26 12:52:42;;;;;;;6.47;3.67;;;22.30;99.90;;;;;;5096197;28;20039;-73